createdAt,value
2023-04-22T00:01:24.425Z,4.97
2023-04-22T00:03:51.350Z,4.89
2023-04-22T00:06:18.252Z,4.89
2023-04-22T00:08:44.579Z,4.75
2023-04-22T00:11:11.170Z,4.69
2023-04-22T00:13:37.586Z,4.61
2023-04-22T00:16:04.561Z,4.63
2023-04-22T00:18:30.964Z,4.66
2023-04-22T00:20:57.285Z,4.62
2023-04-22T00:23:23.622Z,4.57
2023-04-22T00:25:49.979Z,4.52
2023-04-22T00:28:16.522Z,4.39
2023-04-22T00:30:42.857Z,4.45
2023-04-22T00:33:09.506Z,4.54
2023-04-22T00:35:35.910Z,4.54
2023-04-22T00:38:02.298Z,4.64
2023-04-22T00:40:28.737Z,4.74
2023-04-22T00:42:55.073Z,4.74
2023-04-22T00:45:21.742Z,4.67
2023-04-22T00:47:48.540Z,4.58
2023-04-22T00:50:15.290Z,4.49
2023-04-22T00:52:41.626Z,4.60
2023-04-22T00:55:08.271Z,4.55
2023-04-22T00:57:35.757Z,4.48
2023-04-22T01:00:05.234Z,4.46
2023-04-22T01:02:31.857Z,4.41
2023-04-22T01:04:58.386Z,4.46
2023-04-22T01:07:24.705Z,4.35
2023-04-22T01:09:51.064Z,4.32
2023-04-22T01:12:17.445Z,4.25
2023-04-22T01:14:43.806Z,4.19
2023-04-22T01:17:11.042Z,4.21
2023-04-22T01:19:37.841Z,4.18
2023-04-22T01:22:04.418Z,4.16
2023-04-22T01:24:30.818Z,4.10
2023-04-22T01:26:57.164Z,4.08
2023-04-22T01:29:23.514Z,3.98
2023-04-22T01:31:49.881Z,3.99
2023-04-22T01:34:16.273Z,3.98
2023-04-22T01:36:42.603Z,3.97
2023-04-22T01:39:08.982Z,3.94
2023-04-22T01:41:35.786Z,3.81
2023-04-22T01:44:02.714Z,3.88
2023-04-22T01:46:29.219Z,3.88
2023-04-22T01:48:55.681Z,3.85
2023-04-22T01:51:22.079Z,3.82
2023-04-22T01:53:48.664Z,3.79
2023-04-22T01:56:15.212Z,3.70
2023-04-22T01:58:41.555Z,3.76
2023-04-22T02:01:10.192Z,3.72
2023-04-22T02:03:36.655Z,3.68
2023-04-22T02:06:03.091Z,3.68
2023-04-22T02:08:29.506Z,3.61
2023-04-22T02:10:55.934Z,3.55
2023-04-22T02:13:22.337Z,3.45
2023-04-22T02:15:48.696Z,3.41
2023-04-22T02:18:17.900Z,3.44
2023-04-22T02:20:44.538Z,3.41
2023-04-22T02:23:11.381Z,3.44
2023-04-22T02:25:38.147Z,3.41
2023-04-22T02:28:04.482Z,3.33
2023-04-22T02:30:30.891Z,3.39
2023-04-22T02:32:57.293Z,3.36
2023-04-22T02:35:23.700Z,3.34
2023-04-22T02:37:50.273Z,3.32
2023-04-22T02:40:16.638Z,3.37
2023-04-22T02:42:42.979Z,3.35
2023-04-22T02:45:09.566Z,3.38
2023-04-22T02:47:36.149Z,3.31
2023-04-22T02:50:02.500Z,3.35
2023-04-22T02:52:28.869Z,3.34
2023-04-22T02:54:55.202Z,3.32
2023-04-22T02:57:22.178Z,3.33
2023-04-22T02:59:48.588Z,3.32
2023-04-22T03:02:14.992Z,3.31
2023-04-22T03:04:41.549Z,3.31
2023-04-22T03:07:07.955Z,3.32
2023-04-22T03:09:34.290Z,3.37
2023-04-22T03:12:01.005Z,3.43
2023-04-22T03:14:27.377Z,3.43
2023-04-22T03:16:53.795Z,3.39
2023-04-22T03:19:20.179Z,3.42
2023-04-22T03:21:46.572Z,3.45
2023-04-22T03:24:12.951Z,3.43
2023-04-22T03:26:39.282Z,3.42
2023-04-22T03:29:06.017Z,3.42
2023-04-22T03:31:32.397Z,3.39
2023-04-22T03:33:58.893Z,3.33
2023-04-22T03:36:25.319Z,3.26
2023-04-22T03:38:51.885Z,3.26
2023-04-22T03:41:18.263Z,3.30
2023-04-22T03:43:44.683Z,3.26
2023-04-22T03:46:11.157Z,3.28
2023-04-22T03:48:37.512Z,3.26
2023-04-22T03:51:04.060Z,3.35
2023-04-22T03:53:30.499Z,3.35
2023-04-22T03:55:56.850Z,3.37
2023-04-22T03:58:23.258Z,3.43
2023-04-22T04:00:49.584Z,3.44
2023-04-22T04:03:16.143Z,3.48
2023-04-22T04:05:42.880Z,3.63
2023-04-22T04:08:09.312Z,3.67
2023-04-22T04:10:36.447Z,3.75
2023-04-22T04:13:02.900Z,3.78
2023-04-22T04:15:30.522Z,3.78
2023-04-22T04:17:56.972Z,3.81
2023-04-22T04:20:23.441Z,3.92
2023-04-22T04:22:49.763Z,3.98
2023-04-22T04:25:18.259Z,4.04
2023-04-22T04:27:45.583Z,4.10
2023-04-22T04:30:12.126Z,4.14
2023-04-22T04:32:38.954Z,4.23
2023-04-22T04:35:06.166Z,4.35
2023-04-22T04:37:32.508Z,4.42
2023-04-22T04:39:59.345Z,4.55
2023-04-22T04:42:25.827Z,4.66
2023-04-22T04:44:53.654Z,4.77
2023-04-22T04:47:20.128Z,4.85
2023-04-22T04:49:47.218Z,4.98
2023-04-22T04:52:13.569Z,5.12
2023-04-22T04:54:39.966Z,5.20
2023-04-22T04:57:06.580Z,5.29
2023-04-22T04:59:32.958Z,5.46
2023-04-22T05:01:59.387Z,5.60
2023-04-22T05:04:26.155Z,5.74
2023-04-22T05:06:52.730Z,5.90
2023-04-22T05:09:19.068Z,6.08
2023-04-22T05:11:45.512Z,6.31
2023-04-22T05:14:11.837Z,6.54
2023-04-22T05:16:38.224Z,6.79
2023-04-22T05:19:04.646Z,7.08
2023-04-22T05:21:31.512Z,7.37
2023-04-22T05:23:57.895Z,7.68
2023-04-22T05:26:24.292Z,8.08
2023-04-22T05:28:50.654Z,8.55
2023-04-22T05:31:16.991Z,8.85
2023-04-22T05:33:43.512Z,9.07
2023-04-22T05:36:09.847Z,9.28
2023-04-22T05:38:36.161Z,9.33
2023-04-22T05:41:02.580Z,9.51
2023-04-22T05:43:28.927Z,9.57
2023-04-22T05:45:55.619Z,9.76
2023-04-22T05:48:22.324Z,10.02
2023-04-22T05:50:48.678Z,10.43
2023-04-22T05:53:15.034Z,10.67
2023-04-22T05:55:41.492Z,10.74
2023-04-22T05:58:07.851Z,11.29
2023-04-22T06:00:34.186Z,11.33
2023-04-22T06:03:00.767Z,12.02
2023-04-22T06:05:27.383Z,12.30
2023-04-22T06:07:54.045Z,12.60
2023-04-22T06:10:20.488Z,12.74
2023-04-22T06:12:46.828Z,12.80
2023-04-22T06:15:14.179Z,12.75
2023-04-22T06:17:40.776Z,13.51
2023-04-22T06:20:07.511Z,13.27
2023-04-22T06:22:33.861Z,14.15
2023-04-22T06:25:00.274Z,13.29
2023-04-22T06:27:26.871Z,13.79
2023-04-22T06:29:53.264Z,13.76
2023-04-22T06:32:19.634Z,12.98
2023-04-22T06:34:45.949Z,12.80
2023-04-22T06:37:12.314Z,12.94
2023-04-22T06:39:38.927Z,12.80
2023-04-22T06:42:05.546Z,13.29
2023-04-22T06:44:32.569Z,12.53
2023-04-22T06:46:59.064Z,12.67
2023-04-22T06:49:25.544Z,12.63
2023-04-22T06:51:51.957Z,13.60
2023-04-22T06:54:18.385Z,14.09
2023-04-22T06:56:44.790Z,14.61
2023-04-22T06:59:11.133Z,16.06
2023-04-22T07:01:37.560Z,16.43
2023-04-22T07:04:04.149Z,15.68
2023-04-22T07:06:30.686Z,14.64
2023-04-22T07:08:57.074Z,15.28
2023-04-22T07:11:23.423Z,13.82
2023-04-22T07:13:49.822Z,13.72
2023-04-22T07:16:16.301Z,14.77
2023-04-22T07:18:42.724Z,15.72
2023-04-22T07:21:09.238Z,15.84
2023-04-22T07:23:35.786Z,15.69
2023-04-22T07:26:02.565Z,15.42
2023-04-22T07:28:29.859Z,15.45
2023-04-22T07:30:56.258Z,15.84
2023-04-22T07:33:22.796Z,15.37
2023-04-22T07:35:49.229Z,15.24
2023-04-22T07:38:15.651Z,15.95
2023-04-22T07:40:42.094Z,15.77
2023-04-22T07:43:08.602Z,16.67
2023-04-22T07:45:35.097Z,17.51
2023-04-22T07:48:01.499Z,15.81
2023-04-22T07:50:27.919Z,16.19
2023-04-22T07:52:54.365Z,16.08
2023-04-22T07:55:20.753Z,15.80
2023-04-22T07:57:47.091Z,16.93
2023-04-22T08:00:14.108Z,16.59
2023-04-22T08:02:41.049Z,16.99
2023-04-22T08:05:07.743Z,15.73
2023-04-22T08:07:34.523Z,15.37
2023-04-22T08:10:01.160Z,15.43
2023-04-22T08:12:27.514Z,16.08
2023-04-22T08:14:58.893Z,16.17
2023-04-22T08:17:25.457Z,16.47
2023-04-22T08:19:51.927Z,16.72
2023-04-22T08:22:18.931Z,16.19
2023-04-22T08:24:45.327Z,16.16
2023-04-22T08:27:11.835Z,15.86
2023-04-22T08:29:38.582Z,15.79
2023-04-22T08:32:05.362Z,15.27
2023-04-22T08:34:31.813Z,15.58
2023-04-22T08:36:58.270Z,15.76
2023-04-22T08:39:24.721Z,16.02
2023-04-22T08:41:51.067Z,17.01
2023-04-22T08:44:17.436Z,17.37
2023-04-22T08:46:47.008Z,16.52
2023-04-22T08:49:16.461Z,17.01
2023-04-22T08:51:43.638Z,16.01
2023-04-22T08:54:10.531Z,16.73
2023-04-22T08:56:37.258Z,16.87
2023-04-22T08:59:04.198Z,17.04
2023-04-22T09:01:31.422Z,17.57
2023-04-22T09:03:59.145Z,17.86
2023-04-22T09:06:25.600Z,17.65
2023-04-22T09:08:51.975Z,17.13
2023-04-22T09:11:18.302Z,18.06
2023-04-22T09:13:45.050Z,18.21
2023-04-22T09:16:11.533Z,17.94
2023-04-22T09:18:41.828Z,18.11
2023-04-22T09:21:08.401Z,18.92
2023-04-22T09:23:44.237Z,17.40
2023-04-22T09:26:10.630Z,17.91
2023-04-22T09:28:37.459Z,17.82
2023-04-22T09:31:03.927Z,17.49
2023-04-22T09:33:31.066Z,18.65
2023-04-22T09:35:57.490Z,18.86
2023-04-22T09:38:23.888Z,18.75
2023-04-22T09:40:50.231Z,19.41
2023-04-22T09:43:18.188Z,19.39
2023-04-22T09:45:44.587Z,18.64
2023-04-22T09:48:18.272Z,18.58
2023-04-22T09:50:45.456Z,17.82
2023-04-22T09:53:13.873Z,17.96
2023-04-22T09:55:41.574Z,17.97
2023-04-22T09:58:09.641Z,18.00
2023-04-22T10:00:39.845Z,17.65
2023-04-22T10:03:08.893Z,17.35
2023-04-22T10:05:37.853Z,18.08
2023-04-22T10:08:05.266Z,17.93
2023-04-22T10:10:31.950Z,17.45
2023-04-22T10:12:58.293Z,18.76
2023-04-22T10:15:26.872Z,19.20
2023-04-22T10:17:53.547Z,18.56
2023-04-22T10:20:21.021Z,17.67
2023-04-22T10:22:47.798Z,18.67
2023-04-22T10:25:26.880Z,18.68
2023-04-22T10:27:54.500Z,18.33
2023-04-22T10:30:31.243Z,18.36
2023-04-22T10:33:17.516Z,18.54
2023-04-22T10:36:03.884Z,18.43
2023-04-22T10:38:30.213Z,18.49
2023-04-22T10:41:00.146Z,18.63
2023-04-22T10:43:42.537Z,18.52
2023-04-22T10:46:28.935Z,19.54
2023-04-22T10:48:56.493Z,18.12
2023-04-22T10:51:38.342Z,18.87
2023-04-22T10:54:04.754Z,18.15
2023-04-22T10:56:31.095Z,18.39
2023-04-22T10:58:58.192Z,18.74
2023-04-22T11:01:27.451Z,19.06
2023-04-22T11:03:53.957Z,19.17
2023-04-22T11:06:22.301Z,19.42
2023-04-22T11:08:49.585Z,19.16
2023-04-22T11:11:19.011Z,19.12
2023-04-22T11:13:47.497Z,19.15
2023-04-22T11:16:13.959Z,19.28
2023-04-22T11:18:40.363Z,19.27
2023-04-22T11:21:08.408Z,18.81
2023-04-22T11:23:35.702Z,19.76
2023-04-22T11:26:03.389Z,19.40
2023-04-22T11:28:29.943Z,18.95
2023-04-22T11:31:06.543Z,19.51
2023-04-22T11:33:36.847Z,19.66
2023-04-22T11:36:03.316Z,20.22
2023-04-22T11:38:29.775Z,19.82
2023-04-22T11:40:57.765Z,19.92
2023-04-22T11:43:24.207Z,20.78
2023-04-22T11:45:50.782Z,20.15
2023-04-22T11:48:17.138Z,20.02
2023-04-22T11:50:48.134Z,19.86
2023-04-22T11:53:15.691Z,19.59
2023-04-22T11:55:42.193Z,19.91
2023-04-22T11:58:15.826Z,18.62
2023-04-22T12:00:45.958Z,18.89
2023-04-22T12:03:14.633Z,19.48
2023-04-22T12:05:41.650Z,19.57
2023-04-22T12:08:09.149Z,19.30
2023-04-22T12:10:39.669Z,19.39
2023-04-22T12:13:06.030Z,19.93
2023-04-22T12:15:42.538Z,19.62
2023-04-22T12:18:09.245Z,18.61
2023-04-22T12:20:36.094Z,19.95
2023-04-22T12:23:03.494Z,19.29
2023-04-22T12:25:29.950Z,20.13
2023-04-22T12:27:57.405Z,20.53
2023-04-22T12:30:24.925Z,19.14
2023-04-22T12:32:52.071Z,19.91
2023-04-22T12:35:18.534Z,19.49
2023-04-22T12:37:44.916Z,17.77
2023-04-22T12:40:11.667Z,19.33
2023-04-22T12:42:38.013Z,18.47
2023-04-22T12:45:04.575Z,18.82
2023-04-22T12:47:30.922Z,18.95
2023-04-22T12:49:58.535Z,20.33
2023-04-22T12:52:24.908Z,19.83
2023-04-22T12:54:51.417Z,20.20
2023-04-22T12:57:17.751Z,19.47
2023-04-22T12:59:47.249Z,19.39
2023-04-22T13:02:13.748Z,20.18
2023-04-22T13:04:40.854Z,19.79
2023-04-22T13:07:07.354Z,19.98
2023-04-22T13:09:33.776Z,19.47
2023-04-22T13:12:00.186Z,19.55
2023-04-22T13:14:26.909Z,19.83
2023-04-22T13:16:53.455Z,19.53
2023-04-22T13:19:19.835Z,19.99
2023-04-22T13:21:46.202Z,20.28
2023-04-22T13:24:12.527Z,20.11
2023-04-22T13:26:39.153Z,20.26
2023-04-22T13:29:11.021Z,19.31
2023-04-22T13:31:38.536Z,19.45
2023-04-22T13:34:04.953Z,19.07
2023-04-22T13:36:31.849Z,20.19
2023-04-22T13:38:58.203Z,19.59
2023-04-22T13:41:24.685Z,19.50
2023-04-22T13:43:54.303Z,19.29
2023-04-22T13:46:20.986Z,19.41
2023-04-22T13:48:47.953Z,20.15
2023-04-22T13:51:14.730Z,19.65
2023-04-22T13:53:41.143Z,19.55
2023-04-22T13:56:07.457Z,19.35
2023-04-22T13:58:33.824Z,19.83
2023-04-22T14:01:00.336Z,19.27
2023-04-22T14:03:28.340Z,19.51
2023-04-22T14:05:54.857Z,18.31
2023-04-22T14:08:21.251Z,19.48
2023-04-22T14:10:47.625Z,19.35
2023-04-22T14:13:14.057Z,18.67
2023-04-22T14:15:40.388Z,18.20
2023-04-22T14:18:06.782Z,18.20
2023-04-22T14:20:33.292Z,17.71
2023-04-22T14:23:00.928Z,18.05
2023-04-22T14:25:27.374Z,18.21
2023-04-22T14:27:54.000Z,17.71
2023-04-22T14:30:21.797Z,17.52
2023-04-22T14:32:48.459Z,17.51
2023-04-22T14:35:14.962Z,17.91
2023-04-22T14:37:43.446Z,18.18
2023-04-22T14:40:09.916Z,17.88
2023-04-22T14:42:36.277Z,17.85
2023-04-22T14:45:02.685Z,17.14
2023-04-22T14:47:29.852Z,17.38
2023-04-22T14:49:56.363Z,17.59
2023-04-22T14:52:22.766Z,17.74
2023-04-22T14:54:51.725Z,17.45
2023-04-22T14:57:18.454Z,17.75
2023-04-22T14:59:44.802Z,17.30
2023-04-22T15:02:15.618Z,17.08
2023-04-22T15:04:43.206Z,17.16
2023-04-22T15:07:09.937Z,17.14
2023-04-22T15:09:36.454Z,16.99
2023-04-22T15:12:05.238Z,16.42
2023-04-22T15:14:32.315Z,17.31
2023-04-22T15:16:58.731Z,16.86
2023-04-22T15:19:25.119Z,17.07
2023-04-22T15:21:51.443Z,17.03
2023-04-22T15:24:19.917Z,16.55
2023-04-22T15:26:46.845Z,16.85
2023-04-22T15:29:13.276Z,16.83
2023-04-22T15:31:39.653Z,17.15
2023-04-22T15:34:06.099Z,16.59
2023-04-22T15:36:33.222Z,16.71
2023-04-22T15:38:59.584Z,16.42
2023-04-22T15:41:26.148Z,16.50
2023-04-22T15:43:52.780Z,16.62
2023-04-22T15:46:19.431Z,16.13
2023-04-22T15:48:47.388Z,15.89
2023-04-22T15:51:16.812Z,16.08
2023-04-22T15:53:45.350Z,15.95
2023-04-22T15:56:12.234Z,15.61
2023-04-22T15:58:38.943Z,15.57
2023-04-22T16:01:18.151Z,15.71
2023-04-22T16:03:46.534Z,15.55
2023-04-22T16:06:13.036Z,15.14
2023-04-22T16:08:39.396Z,15.19
2023-04-22T16:11:05.967Z,15.02
2023-04-22T16:13:32.460Z,15.31
2023-04-22T16:15:58.952Z,15.10
2023-04-22T16:18:25.555Z,15.21
2023-04-22T16:20:52.736Z,15.14
2023-04-22T16:23:19.606Z,15.00
2023-04-22T16:25:46.014Z,14.87
2023-04-22T16:28:12.460Z,14.80
2023-04-22T16:30:39.046Z,14.73
2023-04-22T16:33:05.648Z,14.80
2023-04-22T16:35:32.112Z,14.83
2023-04-22T16:37:58.445Z,14.75
2023-04-22T16:40:24.819Z,14.59
2023-04-22T16:42:51.305Z,14.50
2023-04-22T16:45:17.647Z,14.37
2023-04-22T16:47:44.045Z,14.38
2023-04-22T16:50:12.203Z,14.31
2023-04-22T16:52:39.137Z,14.39
2023-04-22T16:55:06.053Z,14.32
2023-04-22T16:57:32.748Z,14.51
2023-04-22T16:59:59.177Z,14.51
2023-04-22T17:02:25.710Z,14.66
2023-04-22T17:04:52.195Z,14.46
2023-04-22T17:07:18.533Z,14.26
2023-04-22T17:09:45.079Z,14.07
2023-04-22T17:12:11.476Z,13.83
2023-04-22T17:14:37.843Z,14.08
2023-04-22T17:17:04.224Z,13.89
2023-04-22T17:19:30.777Z,13.90
2023-04-22T17:21:57.344Z,13.92
2023-04-22T17:24:24.833Z,13.89
2023-04-22T17:26:51.537Z,13.84
2023-04-22T17:29:21.546Z,13.82
2023-04-22T17:31:48.221Z,13.54
2023-04-22T17:34:15.145Z,13.44
2023-04-22T17:36:43.089Z,13.24
2023-04-22T17:39:10.071Z,13.03
2023-04-22T17:41:36.450Z,13.08
2023-04-22T17:44:02.831Z,12.94
2023-04-22T17:46:29.484Z,13.05
2023-04-22T17:48:55.979Z,12.99
2023-04-22T17:51:22.320Z,12.69
2023-04-22T17:53:51.302Z,12.70
2023-04-22T17:56:17.636Z,12.63
2023-04-22T17:58:44.053Z,12.64
2023-04-22T18:01:10.560Z,12.47
2023-04-22T18:03:37.084Z,12.43
2023-04-22T18:06:05.152Z,12.40
2023-04-22T18:08:31.657Z,12.17
2023-04-22T18:10:58.028Z,12.02
2023-04-22T18:13:24.361Z,12.08
2023-04-22T18:15:57.944Z,12.00
2023-04-22T18:18:24.318Z,11.91
2023-04-22T18:20:50.810Z,11.85
2023-04-22T18:23:17.217Z,11.84
2023-04-22T18:25:43.574Z,11.78
2023-04-22T18:28:09.966Z,11.79
2023-04-22T18:30:36.595Z,11.80
2023-04-22T18:33:04.693Z,11.71
2023-04-22T18:35:31.123Z,11.60
2023-04-22T18:37:57.469Z,11.61
2023-04-22T18:40:23.920Z,11.54
2023-04-22T18:42:50.433Z,11.42
2023-04-22T18:45:18.942Z,11.37
2023-04-22T18:47:47.933Z,11.39
2023-04-22T18:50:35.401Z,11.23
2023-04-22T18:53:01.791Z,11.22
2023-04-22T18:55:28.222Z,11.10
2023-04-22T18:57:54.687Z,11.08
2023-04-22T19:00:21.470Z,11.00
2023-04-22T19:02:48.080Z,10.95
2023-04-22T19:05:14.829Z,10.90
2023-04-22T19:07:44.493Z,10.83
2023-04-22T19:10:11.729Z,10.79
2023-04-22T19:12:38.108Z,10.61
2023-04-22T19:15:04.993Z,10.58
2023-04-22T19:17:31.671Z,10.35
2023-04-22T19:19:58.455Z,10.45
2023-04-22T19:22:25.016Z,10.37
2023-04-22T19:24:52.012Z,10.32
2023-04-22T19:27:18.949Z,10.33
2023-04-22T19:29:51.110Z,10.36
2023-04-22T19:32:17.621Z,10.39
2023-04-22T19:34:44.817Z,10.22
2023-04-22T19:37:11.315Z,10.17
2023-04-22T19:39:37.677Z,10.13
2023-04-22T19:42:04.336Z,10.24
2023-04-22T19:44:30.816Z,10.19
2023-04-22T19:46:57.415Z,10.16
2023-04-22T19:49:23.931Z,10.17
2023-04-22T19:51:50.815Z,10.13
2023-04-22T19:54:18.265Z,10.04
2023-04-22T19:56:45.252Z,10.06
2023-04-22T19:59:11.621Z,10.08
2023-04-22T20:01:38.373Z,10.00
2023-04-22T20:04:05.183Z,10.10
2023-04-22T20:06:32.505Z,10.03
2023-04-22T20:08:59.774Z,9.88
2023-04-22T20:11:26.696Z,9.89
2023-04-22T20:13:53.184Z,9.74
2023-04-22T20:16:20.743Z,9.58
2023-04-22T20:18:47.264Z,9.61
2023-04-22T20:21:13.896Z,9.65
2023-04-22T20:23:41.572Z,9.68
2023-04-22T20:26:08.442Z,9.66
2023-04-22T20:28:37.930Z,9.59
2023-04-22T20:31:04.418Z,9.63
2023-04-22T20:33:31.974Z,9.58
2023-04-22T20:36:00.777Z,9.51
2023-04-22T20:38:30.835Z,9.43
2023-04-22T20:40:57.243Z,9.39
2023-04-22T20:43:23.674Z,9.48
2023-04-22T20:45:50.073Z,9.39
2023-04-22T20:48:16.605Z,9.41
2023-04-22T20:50:43.084Z,9.43
2023-04-22T20:53:09.591Z,9.29
2023-04-22T20:55:37.241Z,9.30
2023-04-22T20:58:03.878Z,9.13
2023-04-22T21:00:30.280Z,9.19
2023-04-22T21:02:56.833Z,9.20
2023-04-22T21:05:23.453Z,9.24
2023-04-22T21:07:50.754Z,9.28
2023-04-22T21:10:17.471Z,9.27
2023-04-22T21:12:44.042Z,9.23
2023-04-22T21:15:10.865Z,9.24
2023-04-22T21:17:38.121Z,9.02
2023-04-22T21:20:05.649Z,9.01
2023-04-22T21:22:32.087Z,9.07
2023-04-22T21:24:58.636Z,9.00
2023-04-22T21:27:25.226Z,9.06
2023-04-22T21:29:51.748Z,9.13
2023-04-22T21:32:20.211Z,9.01
2023-04-22T21:34:46.821Z,9.02
2023-04-22T21:37:13.152Z,8.86
2023-04-22T21:39:39.895Z,8.89
2023-04-22T21:42:08.395Z,8.88
2023-04-22T21:44:36.237Z,8.92
2023-04-22T21:47:02.870Z,8.74
2023-04-22T21:49:29.256Z,8.81
2023-04-22T21:51:55.738Z,8.84
2023-04-22T21:54:22.188Z,8.79
2023-04-22T21:56:48.527Z,8.71
2023-04-22T21:59:14.846Z,8.80
2023-04-22T22:01:41.279Z,8.90
2023-04-22T22:04:07.799Z,8.86
2023-04-22T22:06:34.272Z,8.86
2023-04-22T22:09:01.273Z,8.91
2023-04-22T22:11:31.286Z,8.84
2023-04-22T22:13:58.150Z,8.89
2023-04-22T22:16:25.938Z,8.98
2023-04-22T22:18:52.459Z,8.83
2023-04-22T22:21:18.967Z,8.90
2023-04-22T22:23:45.370Z,8.81
2023-04-22T22:26:13.022Z,8.61
2023-04-22T22:28:39.745Z,8.65
2023-04-22T22:31:06.895Z,8.69
2023-04-22T22:33:33.261Z,8.63
2023-04-22T22:35:59.618Z,8.60
2023-04-22T22:38:26.050Z,8.59
2023-04-22T22:40:52.502Z,8.63
2023-04-22T22:43:18.853Z,8.64
2023-04-22T22:45:45.587Z,8.71
2023-04-22T22:48:11.997Z,8.64
2023-04-22T22:50:38.906Z,8.60
2023-04-22T22:53:05.298Z,8.57
2023-04-22T22:55:33.896Z,8.49
2023-04-22T22:58:00.285Z,8.50
2023-04-22T23:00:26.713Z,8.41
2023-04-22T23:02:53.166Z,8.45
2023-04-22T23:05:20.539Z,8.41
2023-04-22T23:07:46.907Z,8.40
2023-04-22T23:10:13.694Z,8.40
2023-04-22T23:12:40.310Z,8.32
2023-04-22T23:15:08.140Z,8.29
2023-04-22T23:17:35.020Z,8.24
2023-04-22T23:20:01.645Z,8.30
2023-04-22T23:22:29.859Z,8.28
2023-04-22T23:24:56.427Z,8.30
2023-04-22T23:27:22.931Z,8.27
2023-04-22T23:29:49.381Z,8.27
2023-04-22T23:32:16.267Z,8.22
2023-04-22T23:34:44.756Z,8.10
2023-04-22T23:37:14.112Z,8.11
2023-04-22T23:39:41.899Z,8.09
2023-04-22T23:42:08.291Z,8.14
2023-04-22T23:44:34.707Z,8.22
2023-04-22T23:47:01.234Z,8.18
2023-04-22T23:49:28.853Z,8.13
2023-04-22T23:51:55.682Z,8.13
2023-04-22T23:54:25.776Z,8.18
2023-04-22T23:56:52.476Z,8.26
2023-04-22T23:59:19.024Z,8.52
